createdAt,value
2022-11-17T00:01:48.762Z,89.56
2022-11-17T00:04:15.658Z,88.99
2022-11-17T00:06:42.188Z,88.66
2022-11-17T00:09:17.537Z,89.09
2022-11-17T00:12:04.073Z,89.33
2022-11-17T00:14:34.675Z,89.51
2022-11-17T00:17:10.851Z,89.02
2022-11-17T00:19:56.863Z,88.92
2022-11-17T00:22:24.344Z,89.23
2022-11-17T00:24:51.045Z,89.44
2022-11-17T00:27:18.200Z,89.86
2022-11-17T00:29:44.766Z,89.62
2022-11-17T00:32:34.284Z,89.67
2022-11-17T00:35:10.926Z,89.04
2022-11-17T00:38:04.305Z,89.15
2022-11-17T00:40:30.916Z,89.64
2022-11-17T00:42:57.856Z,89.53
2022-11-17T00:45:24.385Z,89.74
2022-11-17T00:47:50.902Z,88.81
2022-11-17T00:50:18.888Z,89.23
2022-11-17T00:52:45.440Z,89.40
2022-11-17T00:55:11.976Z,89.94
2022-11-17T00:57:38.547Z,89.47
2022-11-17T01:00:05.620Z,88.86
2022-11-17T01:02:32.163Z,89.73
2022-11-17T01:04:58.688Z,89.30
2022-11-17T01:07:26.058Z,88.87
2022-11-17T01:09:52.644Z,89.52
2022-11-17T01:12:19.219Z,88.69
2022-11-17T01:14:45.744Z,89.83
2022-11-17T01:17:12.262Z,89.47
2022-11-17T01:19:38.814Z,89.67
2022-11-17T01:22:05.337Z,89.74
2022-11-17T01:24:31.851Z,90.06
2022-11-17T01:26:58.369Z,89.87
2022-11-17T01:29:24.881Z,90.17
2022-11-17T01:31:52.137Z,90.41
2022-11-17T01:34:19.041Z,90.50
2022-11-17T01:37:04.352Z,90.78
2022-11-17T01:39:31.622Z,90.67
2022-11-17T01:42:02.183Z,89.42
2022-11-17T01:44:56.697Z,89.78
2022-11-17T01:47:38.754Z,90.58
2022-11-17T01:50:20.799Z,90.74
2022-11-17T01:52:50.670Z,90.78
2022-11-17T01:55:19.769Z,90.52
2022-11-17T01:57:51.365Z,90.41
2022-11-17T02:00:18.246Z,90.01
2022-11-17T02:02:46.410Z,90.06
2022-11-17T02:05:18.705Z,90.70
2022-11-17T02:07:47.278Z,90.71
2022-11-17T02:10:13.795Z,90.96
2022-11-17T02:12:41.069Z,91.26
2022-11-17T02:15:08.261Z,91.40
2022-11-17T02:17:40.672Z,90.92
2022-11-17T02:20:12.586Z,91.42
2022-11-17T02:22:54.338Z,91.65
2022-11-17T02:25:27.146Z,91.43
2022-11-17T02:28:29.946Z,91.28
2022-11-17T02:31:18.146Z,91.56
2022-11-17T02:33:59.878Z,91.65
2022-11-17T02:36:55.509Z,91.78
2022-11-17T02:39:26.318Z,91.20
2022-11-17T02:42:00.583Z,91.79
2022-11-17T02:44:55.073Z,91.83
2022-11-17T02:47:28.829Z,91.92
2022-11-17T02:50:09.271Z,91.63
2022-11-17T02:52:36.337Z,91.24
2022-11-17T02:55:07.370Z,91.75
2022-11-17T02:57:36.715Z,91.09
2022-11-17T03:00:17.483Z,91.25
2022-11-17T03:03:09.459Z,91.75
2022-11-17T03:05:56.759Z,91.30
2022-11-17T03:08:41.395Z,91.81
2022-11-17T03:11:08.809Z,92.15
2022-11-17T03:13:44.300Z,91.77
2022-11-17T03:16:30.296Z,91.92
2022-11-17T03:19:29.392Z,91.88
2022-11-17T03:22:12.575Z,92.62
2022-11-17T03:24:50.248Z,92.03
2022-11-17T03:27:23.971Z,91.95
2022-11-17T03:29:52.255Z,91.94
2022-11-17T03:32:19.356Z,91.79
2022-11-17T03:34:52.044Z,91.85
2022-11-17T03:37:22.589Z,91.79
2022-11-17T03:39:53.246Z,92.11
2022-11-17T03:42:29.737Z,92.65
2022-11-17T03:45:14.316Z,92.24
2022-11-17T03:47:42.666Z,91.88
2022-11-17T03:50:27.852Z,91.93
2022-11-17T03:52:54.710Z,91.74
2022-11-17T03:55:27.500Z,91.80
2022-11-17T03:58:06.490Z,92.21
2022-11-17T04:00:34.903Z,91.63
2022-11-17T04:03:02.056Z,91.61
2022-11-17T04:05:28.602Z,91.11
2022-11-17T04:07:55.161Z,91.50
2022-11-17T04:10:25.681Z,91.25
2022-11-17T04:13:29.141Z,91.07
2022-11-17T04:15:59.180Z,90.72
2022-11-17T04:18:27.087Z,90.88
2022-11-17T04:20:55.991Z,90.55
2022-11-17T04:23:24.113Z,90.30
2022-11-17T04:26:12.212Z,90.58
2022-11-17T04:28:41.748Z,90.45
2022-11-17T04:31:27.545Z,90.36
2022-11-17T04:33:59.285Z,90.40
2022-11-17T04:36:35.757Z,90.57
2022-11-17T04:39:02.558Z,90.66
2022-11-17T04:41:48.278Z,90.21
2022-11-17T04:44:17.175Z,89.90
2022-11-17T04:46:45.883Z,90.10
2022-11-17T04:49:13.978Z,90.38
2022-11-17T04:51:41.328Z,90.15
2022-11-17T04:54:09.374Z,90.57
2022-11-17T04:56:36.560Z,90.06
2022-11-17T04:59:03.784Z,90.10
2022-11-17T05:01:30.865Z,90.22
2022-11-17T05:04:02.715Z,90.13
2022-11-17T05:06:32.159Z,90.51
2022-11-17T05:09:01.070Z,90.49
2022-11-17T05:11:47.820Z,90.72
2022-11-17T05:14:17.046Z,90.75
2022-11-17T05:17:08.413Z,90.54
2022-11-17T05:19:40.837Z,90.24
2022-11-17T05:22:28.598Z,90.51
2022-11-17T05:24:56.127Z,90.26
2022-11-17T05:27:23.477Z,90.48
2022-11-17T05:29:50.458Z,90.73
2022-11-17T05:32:17.414Z,91.09
2022-11-17T05:34:43.947Z,90.47
2022-11-17T05:37:10.501Z,90.74
2022-11-17T05:39:37.012Z,90.80
2022-11-17T05:42:03.810Z,91.12
2022-11-17T05:44:30.387Z,90.78
2022-11-17T05:46:56.933Z,91.18
2022-11-17T05:49:24.096Z,90.87
2022-11-17T05:51:52.892Z,90.70
2022-11-17T05:54:20.121Z,90.66
2022-11-17T05:56:56.176Z,90.82
2022-11-17T05:59:36.209Z,91.27
2022-11-17T06:02:14.936Z,91.15
2022-11-17T06:04:41.502Z,91.13
2022-11-17T06:07:08.351Z,91.25
2022-11-17T06:09:39.134Z,90.94
2022-11-17T06:12:06.519Z,90.83
2022-11-17T06:14:34.509Z,90.99
2022-11-17T06:17:09.498Z,90.99
2022-11-17T06:19:44.025Z,91.33
2022-11-17T06:22:12.505Z,91.36
2022-11-17T06:24:42.843Z,91.63
2022-11-17T06:27:11.971Z,91.67
2022-11-17T06:29:43.859Z,91.56
2022-11-17T06:32:10.971Z,91.20
2022-11-17T06:34:37.654Z,91.30
2022-11-17T06:37:04.170Z,91.47
2022-11-17T06:39:30.744Z,91.25
2022-11-17T06:41:57.263Z,91.39
2022-11-17T06:44:23.788Z,90.95
2022-11-17T06:46:50.266Z,90.64
2022-11-17T06:49:16.781Z,90.54
2022-11-17T06:51:45.339Z,90.20
2022-11-17T06:54:14.727Z,89.55
2022-11-17T06:56:42.350Z,90.05
2022-11-17T06:59:08.929Z,90.50
2022-11-17T07:01:37.391Z,90.18
2022-11-17T07:04:04.083Z,90.55
2022-11-17T07:06:30.818Z,90.01
2022-11-17T07:08:57.437Z,90.08
2022-11-17T07:11:23.979Z,90.10
2022-11-17T07:13:50.562Z,89.83
2022-11-17T07:16:23.270Z,90.26
2022-11-17T07:18:50.875Z,89.77
2022-11-17T07:21:18.079Z,89.71
2022-11-17T07:23:45.764Z,89.29
2022-11-17T07:26:12.487Z,89.47
2022-11-17T07:28:39.239Z,89.10
2022-11-17T07:31:07.806Z,88.76
2022-11-17T07:33:34.904Z,88.32
2022-11-17T07:36:10.268Z,87.40
2022-11-17T07:38:38.568Z,87.59
2022-11-17T07:41:06.897Z,88.32
2022-11-17T07:43:34.376Z,88.71
2022-11-17T07:46:05.396Z,87.86
2022-11-17T07:48:33.186Z,88.82
2022-11-17T07:51:01.443Z,88.01
2022-11-17T07:53:28.811Z,89.01
2022-11-17T07:55:55.779Z,88.56
2022-11-17T07:58:25.345Z,87.84
2022-11-17T08:00:51.977Z,88.72
2022-11-17T08:03:18.721Z,87.47
2022-11-17T08:05:45.424Z,88.19
2022-11-17T08:08:13.547Z,88.44
2022-11-17T08:10:40.488Z,88.35
2022-11-17T08:13:07.748Z,88.36
2022-11-17T08:15:35.248Z,88.17
2022-11-17T08:18:01.852Z,87.67
2022-11-17T08:20:29.425Z,87.46
2022-11-17T08:22:56.669Z,86.17
2022-11-17T08:25:25.431Z,86.39
2022-11-17T08:27:55.429Z,86.15
2022-11-17T08:30:22.635Z,85.89
2022-11-17T08:32:52.250Z,84.53
2022-11-17T08:35:21.272Z,85.08
2022-11-17T08:37:48.149Z,84.57
2022-11-17T08:40:16.065Z,84.22
2022-11-17T08:42:42.583Z,84.47
2022-11-17T08:45:10.696Z,84.07
2022-11-17T08:47:37.767Z,84.23
2022-11-17T08:50:08.055Z,84.84
2022-11-17T08:52:34.651Z,83.99
2022-11-17T08:55:02.168Z,83.19
2022-11-17T08:57:33.763Z,82.83
2022-11-17T09:00:01.067Z,82.25
2022-11-17T09:02:27.828Z,81.87
2022-11-17T09:04:54.376Z,81.85
2022-11-17T09:07:20.974Z,82.64
2022-11-17T09:09:48.634Z,82.12
2022-11-17T09:12:16.279Z,82.31
2022-11-17T09:14:42.859Z,81.52
2022-11-17T09:17:09.484Z,82.03
2022-11-17T09:19:36.167Z,81.49
2022-11-17T09:22:02.687Z,81.10
2022-11-17T09:24:29.240Z,81.53
2022-11-17T09:26:57.524Z,81.39
2022-11-17T09:29:24.182Z,81.87
2022-11-17T09:31:50.791Z,81.14
2022-11-17T09:34:17.615Z,80.90
2022-11-17T09:36:44.190Z,79.85
2022-11-17T09:39:10.776Z,80.66
2022-11-17T09:41:46.886Z,80.16
2022-11-17T09:44:19.557Z,79.73
2022-11-17T09:46:53.520Z,80.45
2022-11-17T09:49:34.975Z,80.16
2022-11-17T09:52:46.466Z,78.17
2022-11-17T09:55:53.685Z,78.43
2022-11-17T09:58:45.998Z,78.87
2022-11-17T10:01:16.034Z,78.83
2022-11-17T10:03:46.331Z,78.94
2022-11-17T10:06:23.669Z,78.87
2022-11-17T10:08:58.328Z,79.45
2022-11-17T10:11:31.625Z,79.86
2022-11-17T10:14:11.538Z,78.04
2022-11-17T10:16:40.889Z,78.97
2022-11-17T10:19:14.360Z,78.49
2022-11-17T10:21:40.930Z,77.63
2022-11-17T10:24:08.190Z,77.52
2022-11-17T10:26:47.511Z,77.02
2022-11-17T10:29:22.431Z,75.87
2022-11-17T10:31:49.914Z,77.99
2022-11-17T10:34:41.002Z,76.91
2022-11-17T10:37:14.189Z,76.23
2022-11-17T10:39:42.994Z,77.66
2022-11-17T10:42:27.893Z,77.33
2022-11-17T10:44:58.326Z,77.06
2022-11-17T10:47:31.848Z,76.59
2022-11-17T10:50:22.956Z,77.11
2022-11-17T10:52:51.374Z,76.42
2022-11-17T10:55:24.512Z,76.72
2022-11-17T10:57:58.899Z,76.75
2022-11-17T11:00:34.842Z,76.03
2022-11-17T11:03:17.444Z,75.55
2022-11-17T11:06:23.255Z,75.61
2022-11-17T11:09:31.263Z,76.07
2022-11-17T11:12:00.165Z,75.28
2022-11-17T11:14:51.199Z,75.24
2022-11-17T11:17:18.422Z,75.52
2022-11-17T11:19:52.661Z,74.93
2022-11-17T11:22:42.245Z,76.41
2022-11-17T11:25:14.545Z,75.71
2022-11-17T11:27:56.040Z,76.16
2022-11-17T11:30:22.589Z,75.83
2022-11-17T11:33:23.086Z,75.57
2022-11-17T11:36:04.286Z,75.33
2022-11-17T11:38:48.732Z,73.27
2022-11-17T11:41:27.939Z,74.79
2022-11-17T11:44:22.748Z,74.67
2022-11-17T11:46:58.494Z,75.18
2022-11-17T11:49:52.616Z,74.20
2022-11-17T11:52:22.280Z,76.22
2022-11-17T11:54:59.092Z,75.86
2022-11-17T11:57:39.216Z,76.52
2022-11-17T12:00:08.933Z,75.79
2022-11-17T12:02:48.145Z,75.25
2022-11-17T12:05:30.311Z,75.59
2022-11-17T12:08:16.732Z,75.67
2022-11-17T12:10:54.492Z,76.17
2022-11-17T12:13:22.576Z,75.99
2022-11-17T12:15:49.356Z,76.20
2022-11-17T12:18:18.733Z,76.66
2022-11-17T12:20:56.015Z,76.62
2022-11-17T12:23:38.328Z,76.86
2022-11-17T12:26:05.333Z,76.62
2022-11-17T12:28:40.474Z,76.79
2022-11-17T12:31:42.804Z,75.93
2022-11-17T12:34:31.188Z,75.18
2022-11-17T12:37:19.802Z,74.56
2022-11-17T12:40:01.696Z,75.76
2022-11-17T12:42:34.000Z,76.21
2022-11-17T12:45:02.494Z,75.95
2022-11-17T12:47:32.343Z,76.05
2022-11-17T12:50:17.484Z,75.97
2022-11-17T12:52:43.970Z,76.51
2022-11-17T12:55:39.844Z,76.53
2022-11-17T12:58:10.728Z,76.04
2022-11-17T13:00:52.900Z,75.24
2022-11-17T13:03:27.649Z,75.76
2022-11-17T13:06:34.479Z,75.50
2022-11-17T13:09:01.720Z,75.88
2022-11-17T13:11:29.364Z,75.96
2022-11-17T13:14:14.186Z,75.38
2022-11-17T13:16:49.813Z,76.17
2022-11-17T13:19:36.910Z,76.39
2022-11-17T13:22:16.123Z,77.66
2022-11-17T13:24:45.054Z,78.02
2022-11-17T13:27:25.546Z,78.23
2022-11-17T13:30:11.407Z,78.80
2022-11-17T13:32:40.059Z,78.85
2022-11-17T13:35:18.955Z,78.86
2022-11-17T13:37:45.979Z,78.82
2022-11-17T13:40:22.234Z,78.85
2022-11-17T13:42:49.768Z,78.71
2022-11-17T13:45:16.723Z,78.52
2022-11-17T13:47:48.957Z,78.39
2022-11-17T13:50:27.703Z,78.43
2022-11-17T13:52:56.652Z,77.95
2022-11-17T13:55:24.653Z,78.01
2022-11-17T13:58:23.346Z,78.77
2022-11-17T14:00:54.404Z,78.52
2022-11-17T14:03:46.579Z,78.38
2022-11-17T14:06:14.558Z,78.68
2022-11-17T14:08:43.192Z,78.72
2022-11-17T14:11:09.645Z,78.82
2022-11-17T14:13:40.421Z,79.12
2022-11-17T14:16:23.140Z,78.94
2022-11-17T14:18:57.265Z,79.71
2022-11-17T14:21:24.368Z,79.83
2022-11-17T14:24:01.829Z,79.38
2022-11-17T14:26:28.929Z,79.87
2022-11-17T14:28:58.163Z,79.80
2022-11-17T14:31:24.683Z,80.00
2022-11-17T14:33:51.371Z,80.78
2022-11-17T14:36:18.353Z,80.76
2022-11-17T14:38:45.732Z,81.26
2022-11-17T14:41:15.850Z,80.51
2022-11-17T14:43:42.526Z,80.66
2022-11-17T14:46:24.695Z,81.42
2022-11-17T14:48:52.523Z,80.70
2022-11-17T14:51:20.814Z,81.60
2022-11-17T14:53:48.223Z,81.38
2022-11-17T14:56:17.821Z,80.96
2022-11-17T14:58:45.260Z,80.96
2022-11-17T15:01:15.916Z,81.22
2022-11-17T15:03:43.176Z,81.71
2022-11-17T15:06:15.244Z,81.60
2022-11-17T15:08:45.356Z,81.05
2022-11-17T15:11:17.762Z,81.49
2022-11-17T15:13:44.464Z,81.68
2022-11-17T15:16:12.004Z,82.19
2022-11-17T15:18:38.602Z,81.66
2022-11-17T15:21:07.754Z,82.20
2022-11-17T15:23:38.253Z,81.70
2022-11-17T15:26:13.552Z,82.66
2022-11-17T15:28:40.713Z,81.99
2022-11-17T15:31:15.759Z,82.67
2022-11-17T15:33:43.765Z,82.75
2022-11-17T15:36:13.146Z,82.51
2022-11-17T15:38:40.830Z,82.13
2022-11-17T15:41:09.758Z,82.07
2022-11-17T15:43:37.880Z,82.63
2022-11-17T15:46:07.106Z,83.27
2022-11-17T15:48:34.870Z,83.06
2022-11-17T15:51:05.778Z,82.42
2022-11-17T15:53:34.388Z,82.61
2022-11-17T15:56:08.373Z,82.66
2022-11-17T15:58:35.759Z,82.87
2022-11-17T16:01:16.822Z,82.67
2022-11-17T16:03:45.341Z,82.52
2022-11-17T16:06:12.700Z,82.87
2022-11-17T16:08:39.871Z,83.56
2022-11-17T16:11:07.198Z,82.76
2022-11-17T16:13:33.817Z,83.73
2022-11-17T16:16:00.543Z,83.83
2022-11-17T16:18:27.253Z,83.94
2022-11-17T16:20:54.026Z,84.05
2022-11-17T16:23:20.777Z,83.46
2022-11-17T16:25:48.724Z,83.69
2022-11-17T16:28:17.112Z,83.69
2022-11-17T16:30:43.995Z,84.14
2022-11-17T16:33:12.619Z,84.17
2022-11-17T16:35:40.792Z,83.61
2022-11-17T16:38:08.498Z,83.87
2022-11-17T16:40:37.820Z,84.33
2022-11-17T16:43:04.400Z,83.88
2022-11-17T16:45:31.086Z,84.34
2022-11-17T16:47:58.835Z,83.74
2022-11-17T16:50:25.424Z,84.08
2022-11-17T16:52:51.963Z,84.56
2022-11-17T16:55:20.526Z,83.58
2022-11-17T16:57:47.137Z,83.96
2022-11-17T17:00:15.082Z,83.73
2022-11-17T17:02:41.782Z,83.65
2022-11-17T17:05:08.454Z,84.48
2022-11-17T17:07:35.067Z,84.90
2022-11-17T17:10:01.866Z,84.33
2022-11-17T17:12:28.395Z,84.04
2022-11-17T17:14:55.014Z,84.50
2022-11-17T17:17:21.556Z,84.54
2022-11-17T17:19:48.527Z,84.21
2022-11-17T17:22:15.059Z,84.37
2022-11-17T17:24:41.737Z,84.65
2022-11-17T17:27:08.311Z,84.98
2022-11-17T17:29:34.833Z,85.24
2022-11-17T17:32:01.393Z,85.48
2022-11-17T17:34:27.937Z,86.57
2022-11-17T17:36:54.460Z,86.36
2022-11-17T17:39:21.092Z,86.53
2022-11-17T17:41:47.657Z,86.13
2022-11-17T17:44:19.281Z,86.75
2022-11-17T17:46:46.908Z,86.57
2022-11-17T17:49:13.778Z,86.56
2022-11-17T17:51:44.168Z,86.42
2022-11-17T17:54:19.974Z,86.49
2022-11-17T17:56:47.804Z,87.07
2022-11-17T17:59:15.931Z,87.05
2022-11-17T18:01:45.772Z,86.76
2022-11-17T18:04:15.863Z,86.68
2022-11-17T18:06:47.017Z,87.12
2022-11-17T18:09:15.509Z,86.41
2022-11-17T18:11:46.011Z,86.69
2022-11-17T18:14:13.377Z,86.73
2022-11-17T18:16:40.309Z,86.20
2022-11-17T18:19:08.502Z,87.07
2022-11-17T18:21:35.592Z,86.49
2022-11-17T18:24:02.771Z,86.88
2022-11-17T18:26:32.414Z,86.43
2022-11-17T18:29:01.178Z,86.28
2022-11-17T18:31:29.855Z,86.44
2022-11-17T18:33:59.198Z,86.17
2022-11-17T18:36:26.692Z,86.11
2022-11-17T18:38:53.584Z,86.37
2022-11-17T18:41:21.695Z,86.90
2022-11-17T18:43:48.554Z,86.60
2022-11-17T18:46:17.860Z,86.89
2022-11-17T18:48:46.460Z,86.25
2022-11-17T18:51:20.047Z,85.91
2022-11-17T18:53:51.821Z,86.32
2022-11-17T18:56:21.698Z,86.54
2022-11-17T18:58:48.836Z,86.49
2022-11-17T19:01:18.416Z,86.58
2022-11-17T19:03:46.921Z,86.33
2022-11-17T19:06:14.887Z,86.70
2022-11-17T19:08:41.691Z,86.32
2022-11-17T19:11:09.760Z,86.18
2022-11-17T19:13:38.329Z,86.65
2022-11-17T19:16:07.004Z,86.45
2022-11-17T19:18:33.881Z,86.53
2022-11-17T19:21:09.513Z,86.73
2022-11-17T19:23:37.810Z,87.15
2022-11-17T19:26:16.014Z,87.58
2022-11-17T19:28:43.457Z,87.21
2022-11-17T19:31:12.679Z,88.00
2022-11-17T19:33:40.426Z,87.76
2022-11-17T19:36:10.014Z,88.02
2022-11-17T19:38:38.606Z,88.13
2022-11-17T19:41:07.400Z,88.75
2022-11-17T19:43:34.612Z,88.34
2022-11-17T19:46:03.151Z,87.92
2022-11-17T19:48:31.218Z,88.66
2022-11-17T19:50:58.845Z,88.57
2022-11-17T19:53:26.144Z,88.51
2022-11-17T19:55:52.827Z,88.34
2022-11-17T19:58:20.612Z,87.87
2022-11-17T20:00:51.335Z,88.08
2022-11-17T20:03:18.225Z,88.24
2022-11-17T20:05:45.576Z,88.08
2022-11-17T20:08:12.177Z,87.30
2022-11-17T20:10:38.802Z,86.95
2022-11-17T20:13:05.374Z,87.31
2022-11-17T20:15:35.221Z,87.30
2022-11-17T20:18:02.089Z,87.55
2022-11-17T20:20:28.851Z,87.18
2022-11-17T20:22:55.655Z,87.50
2022-11-17T20:25:22.164Z,87.03
2022-11-17T20:27:48.704Z,87.64
2022-11-17T20:30:15.736Z,87.18
2022-11-17T20:32:42.416Z,87.40
2022-11-17T20:35:09.271Z,87.61
2022-11-17T20:37:35.831Z,87.39
2022-11-17T20:40:02.343Z,87.63
2022-11-17T20:42:28.878Z,87.41
2022-11-17T20:44:55.387Z,88.18
2022-11-17T20:47:27.391Z,87.89
2022-11-17T20:49:54.926Z,87.77
2022-11-17T20:52:21.502Z,87.92
2022-11-17T20:54:48.060Z,88.00
2022-11-17T20:57:14.597Z,87.86
2022-11-17T20:59:41.168Z,87.64
2022-11-17T21:02:09.768Z,87.96
2022-11-17T21:04:36.370Z,88.20
2022-11-17T21:07:03.147Z,88.28
2022-11-17T21:09:29.720Z,87.95
2022-11-17T21:11:56.379Z,87.68
2022-11-17T21:14:25.847Z,87.71
2022-11-17T21:16:53.999Z,87.99
2022-11-17T21:19:21.105Z,88.25
2022-11-17T21:21:53.438Z,87.67
2022-11-17T21:24:21.882Z,87.68
2022-11-17T21:26:51.897Z,87.93
2022-11-17T21:29:18.637Z,87.82
2022-11-17T21:31:45.422Z,87.51
2022-11-17T21:34:15.925Z,87.51
2022-11-17T21:36:42.733Z,87.17
2022-11-17T21:39:09.522Z,87.40
2022-11-17T21:41:37.797Z,87.43
2022-11-17T21:44:05.020Z,87.45
2022-11-17T21:46:33.741Z,87.25
2022-11-17T21:49:00.832Z,87.39
2022-11-17T21:51:33.165Z,87.63
2022-11-17T21:54:02.070Z,87.68
2022-11-17T21:56:29.331Z,87.97
2022-11-17T21:58:57.936Z,88.05
2022-11-17T22:01:25.474Z,88.28
2022-11-17T22:03:52.318Z,88.37
2022-11-17T22:06:20.609Z,88.09
2022-11-17T22:08:47.986Z,88.33
2022-11-17T22:11:36.554Z,88.72
2022-11-17T22:14:17.037Z,89.33
2022-11-17T22:16:46.032Z,89.21
2022-11-17T22:19:14.149Z,88.91
2022-11-17T22:21:41.495Z,89.04
2022-11-17T22:24:12.670Z,88.93
2022-11-17T22:26:41.395Z,88.78
2022-11-17T22:29:11.831Z,88.64
2022-11-17T22:31:38.433Z,88.48
2022-11-17T22:34:05.114Z,88.57
2022-11-17T22:36:32.163Z,88.90
2022-11-17T22:38:58.890Z,88.82
2022-11-17T22:41:26.319Z,88.28
2022-11-17T22:43:54.863Z,88.80
2022-11-17T22:46:23.874Z,88.68
2022-11-17T22:48:50.728Z,88.49
2022-11-17T22:51:37.779Z,88.63
2022-11-17T22:54:05.516Z,88.83
2022-11-17T22:56:32.878Z,89.00
2022-11-17T22:59:00.061Z,89.13
2022-11-17T23:01:27.070Z,89.00
2022-11-17T23:03:53.760Z,89.04
2022-11-17T23:06:22.493Z,89.38
2022-11-17T23:08:49.038Z,88.92
2022-11-17T23:11:35.870Z,89.18
2022-11-17T23:14:02.374Z,88.82
2022-11-17T23:16:29.945Z,88.47
2022-11-17T23:18:57.189Z,88.53
2022-11-17T23:21:24.137Z,88.58
2022-11-17T23:23:51.274Z,88.29
2022-11-17T23:26:18.121Z,88.18
2022-11-17T23:28:45.188Z,88.33
2022-11-17T23:31:14.566Z,87.97
2022-11-17T23:33:43.550Z,88.04
2022-11-17T23:36:20.984Z,88.21
2022-11-17T23:38:48.819Z,87.95
2022-11-17T23:41:17.360Z,87.79
2022-11-17T23:43:44.001Z,88.05
2022-11-17T23:46:11.798Z,88.16
2022-11-17T23:48:38.347Z,88.23
2022-11-17T23:51:06.374Z,87.83
2022-11-17T23:53:33.452Z,87.82
2022-11-17T23:56:01.030Z,87.97
2022-11-17T23:58:28.479Z,88.28
